Time;durP1;ratioP1;P1;durP2;ratioP2;P2;SDS_P1;SDS_P2;PMS_P1;PMS_P2;Temp;Humidity;BMP_temperature;BMP_pressure;BME280_temperature;BME280_humidity;BME280_pressure;Samples;Min_cycle;Max_cycle;Signal;HPM_P1;HPM_P2
2022/04/10 00:01:32;;;;;;;9.07;3.45;;;2.30;99.90;;;;;;5061619;28;20032;-57
2022/04/10 00:03:58;;;;;;;8.80;3.78;;;2.30;99.90;;;;;;5060245;28;20147;-57
2022/04/10 00:06:24;;;;;;;4.05;2.10;;;2.40;99.90;;;;;;5056030;28;20036;-56
2022/04/10 00:08:50;;;;;;;10.82;2.75;;;2.40;99.90;;;;;;5053251;28;20033;-53
2022/04/10 00:11:16;;;;;;;6.82;2.35;;;2.50;99.90;;;;;;5059316;28;20108;-54
2022/04/10 00:13:41;;;;;;;5.00;2.60;;;2.50;99.90;;;;;;5063216;28;20029;-55
2022/04/10 00:16:08;;;;;;;9.43;2.38;;;2.50;99.90;;;;;;5068464;28;20488;-58
2022/04/10 00:18:34;;;;;;;4.35;2.33;;;2.50;99.90;;;;;;5059795;28;20020;-57
2022/04/10 00:21:01;;;;;;;9.15;2.65;;;2.60;99.90;;;;;;5044908;28;20041;-57
2022/04/10 00:23:27;;;;;;;13.07;2.83;;;2.60;99.90;;;;;;5059464;28;20090;-58
2022/04/10 00:25:52;;;;;;;7.70;2.35;;;2.50;99.90;;;;;;5045680;28;20037;-60
2022/04/10 00:28:18;;;;;;;5.90;2.38;;;2.50;99.90;;;;;;5049867;28;20054;-58
2022/04/10 00:30:43;;;;;;;6.35;2.50;;;2.50;99.90;;;;;;5063023;28;20025;-59
2022/04/10 00:33:09;;;;;;;9.02;2.22;;;2.50;99.90;;;;;;5056836;28;20044;-60
2022/04/10 00:35:35;;;;;;;6.93;2.42;;;2.50;99.90;;;;;;5064373;28;20074;-51
2022/04/10 00:38:00;;;;;;;8.75;2.50;;;2.50;99.90;;;;;;5054435;28;20033;-57
2022/04/10 00:40:26;;;;;;;9.77;2.30;;;2.50;99.90;;;;;;5065473;28;20027;-59
2022/04/10 00:42:51;;;;;;;15.73;3.17;;;2.50;99.90;;;;;;5059058;28;20037;-56
2022/04/10 00:45:18;;;;;;;9.00;2.22;;;2.60;99.90;;;;;;5058817;28;20483;-58
2022/04/10 00:47:45;;;;;;;6.88;2.60;;;2.60;99.90;;;;;;5055162;28;20028;-56
2022/04/10 00:50:12;;;;;;;6.65;2.38;;;2.60;99.90;;;;;;5060175;28;20407;-54
2022/04/10 00:52:40;;;;;;;7.95;2.50;;;2.70;99.90;;;;;;5065396;28;20588;-58
2022/04/10 00:55:06;;;;;;;10.43;2.45;;;2.70;99.90;;;;;;5058142;28;20036;-59
2022/04/10 00:57:34;;;;;;;8.40;2.72;;;2.70;99.90;;;;;;5059473;28;20051;-55
2022/04/10 01:00:01;;;;;;;6.05;2.28;;;2.80;99.90;;;;;;5060643;28;20511;-59
2022/04/10 01:02:26;;;;;;;7.80;3.10;;;2.80;99.90;;;;;;5063956;28;20028;-57
2022/04/10 01:04:52;;;;;;;9.93;3.03;;;2.80;99.90;;;;;;5060012;28;20039;-60
2022/04/10 01:07:20;;;;;;;8.77;2.70;;;2.80;99.90;;;;;;5052852;28;20029;-55
2022/04/10 01:09:46;;;;;;;8.40;2.50;;;2.90;99.90;;;;;;5055261;28;20081;-60
2022/04/10 01:12:12;;;;;;;12.13;3.05;;;2.90;99.90;;;;;;5070027;28;20067;-52
2022/04/10 01:14:39;;;;;;;10.80;2.95;;;3.00;99.90;;;;;;5067585;28;20048;-57
2022/04/10 01:17:09;;;;;;;8.73;2.92;;;3.00;99.90;;;;;;5061988;28;20232;-57
2022/04/10 01:19:37;;;;;;;8.27;2.70;;;3.00;99.90;;;;;;5037022;28;20032;-52
2022/04/10 01:22:05;;;;;;;7.68;3.00;;;2.90;99.90;;;;;;5055265;28;20040;-57
2022/04/10 01:24:37;;;;;;;8.90;2.70;;;2.80;99.90;;;;;;5054574;28;20135;-57
2022/04/10 01:27:03;;;;;;;8.25;3.03;;;2.70;99.90;;;;;;5064770;28;20104;-54
2022/04/10 01:29:29;;;;;;;8.02;2.70;;;2.60;99.90;;;;;;5063558;28;20132;-58
2022/04/10 01:31:55;;;;;;;7.28;2.65;;;2.50;99.90;;;;;;5060974;28;20440;-60
2022/04/10 01:34:20;;;;;;;7.47;3.33;;;2.40;99.90;;;;;;5060570;28;20032;-58
2022/04/10 01:36:46;;;;;;;11.85;3.13;;;2.20;99.90;;;;;;5066198;28;20052;-57
2022/04/10 01:39:15;;;;;;;10.13;3.40;;;2.20;99.90;;;;;;5067185;28;20387;-58
2022/04/10 01:41:41;;;;;;;12.07;2.95;;;2.00;99.90;;;;;;5070143;28;20059;-57
2022/04/10 01:44:08;;;;;;;11.85;2.95;;;2.00;99.90;;;;;;5070265;28;20043;-57
2022/04/10 01:46:35;;;;;;;17.35;3.75;;;1.90;99.90;;;;;;5068798;28;20024;-57
2022/04/10 01:49:02;;;;;;;10.57;3.20;;;1.80;99.90;;;;;;5064523;28;20601;-56
2022/04/10 01:51:27;;;;;;;9.63;4.03;;;1.70;99.90;;;;;;5069120;28;20039;-57
2022/04/10 01:53:54;;;;;;;7.97;3.83;;;1.60;99.90;;;;;;5066753;28;20047;-57
2022/04/10 01:56:21;;;;;;;21.05;5.20;;;1.60;99.90;;;;;;5060698;28;20046;-57
2022/04/10 01:58:48;;;;;;;10.82;4.13;;;1.50;99.90;;;;;;5071185;28;20028;-55
2022/04/10 02:01:15;;;;;;;15.90;4.32;;;1.40;99.90;;;;;;5068647;28;20036;-57
2022/04/10 02:03:42;;;;;;;15.80;4.28;;;1.40;99.90;;;;;;5065630;28;20021;-57
2022/04/10 02:06:10;;;;;;;9.73;4.07;;;1.30;99.90;;;;;;5055047;28;20033;-58
2022/04/10 02:08:36;;;;;;;9.10;3.60;;;1.20;99.90;;;;;;5057136;28;20023;-56
2022/04/10 02:11:16;;;;;;;17.58;4.68;;;1.20;99.90;;;;;;5057972;28;20040;-57
2022/04/10 02:13:42;;;;;;;14.23;3.53;;;1.10;99.90;;;;;;5053660;28;20036;-57
2022/04/10 02:16:12;;;;;;;8.43;3.20;;;1.10;99.90;;;;;;5062820;28;20024;-59
2022/04/10 02:18:38;;;;;;;10.02;3.58;;;1.10;99.90;;;;;;5063317;28;20044;-59
2022/04/10 02:21:04;;;;;;;12.23;3.85;;;1.00;99.90;;;;;;5047242;28;20131;-56
2022/04/10 02:23:30;;;;;;;14.70;4.30;;;0.90;99.90;;;;;;5055950;28;20040;-58
2022/04/10 02:25:56;;;;;;;14.10;4.95;;;0.90;99.90;;;;;;5065607;28;20029;-57
2022/04/10 02:28:22;;;;;;;14.82;4.47;;;0.80;99.90;;;;;;5070829;28;20029;-55
2022/04/10 02:30:47;;;;;;;11.02;4.40;;;0.80;99.90;;;;;;5065964;28;20029;-59
2022/04/10 02:33:13;;;;;;;13.13;4.13;;;0.80;99.90;;;;;;5060216;28;20071;-56
2022/04/10 02:35:40;;;;;;;9.85;4.40;;;0.70;99.90;;;;;;5064223;28;20028;-55
2022/04/10 02:38:06;;;;;;;12.10;4.47;;;0.70;99.90;;;;;;5050899;28;20024;-59
2022/04/10 02:40:31;;;;;;;16.33;4.95;;;0.70;99.90;;;;;;5052652;28;20025;-56
2022/04/10 02:42:57;;;;;;;10.10;4.63;;;0.60;99.90;;;;;;5057024;28;20035;-59
2022/04/10 02:45:22;;;;;;;12.63;5.20;;;0.60;99.90;;;;;;5061084;28;20503;-54
2022/04/10 02:47:48;;;;;;;8.77;4.75;;;0.60;99.90;;;;;;5064418;28;20055;-56
2022/04/10 02:50:14;;;;;;;10.10;5.03;;;0.60;99.90;;;;;;5063458;28;20124;-57
2022/04/10 02:52:40;;;;;;;14.32;5.75;;;0.60;99.90;;;;;;5066590;28;20123;-57
2022/04/10 02:55:07;;;;;;;11.07;4.50;;;0.50;99.90;;;;;;5060931;28;20078;-57
2022/04/10 02:57:34;;;;;;;13.80;5.05;;;0.50;99.90;;;;;;5058775;28;20517;-57
2022/04/10 03:00:00;;;;;;;10.85;4.60;;;0.50;99.90;;;;;;5056432;28;20028;-56
2022/04/10 03:02:25;;;;;;;17.50;5.32;;;0.50;99.90;;;;;;5062682;28;20591;-57
2022/04/10 03:04:51;;;;;;;16.58;6.20;;;0.40;99.90;;;;;;5063502;28;20060;-55
2022/04/10 03:07:16;;;;;;;12.63;6.20;;;0.40;99.90;;;;;;5059596;28;20099;-58
2022/04/10 03:09:42;;;;;;;12.38;6.30;;;0.40;99.90;;;;;;5053865;28;20037;-55
2022/04/10 03:12:08;;;;;;;10.73;5.78;;;0.30;99.90;;;;;;5053948;28;20424;-58
2022/04/10 03:14:34;;;;;;;11.90;6.50;;;0.30;99.90;;;;;;5052812;28;20032;-55
2022/04/10 03:17:00;;;;;;;18.13;6.47;;;0.30;99.90;;;;;;5056011;28;20099;-59
2022/04/10 03:19:26;;;;;;;13.45;5.85;;;0.20;99.90;;;;;;5068006;28;20028;-56
2022/04/10 03:21:51;;;;;;;12.38;6.13;;;0.20;99.90;;;;;;5046998;28;20044;-58
2022/04/10 03:24:17;;;;;;;19.13;6.88;;;0.20;99.90;;;;;;5068932;28;20077;-58
2022/04/10 03:26:43;;;;;;;11.48;6.55;;;0.20;99.90;;;;;;5067422;28;20033;-58
2022/04/10 03:29:09;;;;;;;14.93;7.13;;;0.30;99.90;;;;;;5051831;28;20029;-60
2022/04/10 03:31:35;;;;;;;13.52;6.13;;;0.30;99.90;;;;;;5052388;28;20714;-57
2022/04/10 03:34:00;;;;;;;13.00;5.72;;;0.40;99.90;;;;;;5055678;28;20040;-58
2022/04/10 03:36:26;;;;;;;11.13;6.20;;;0.40;99.90;;;;;;5063418;28;20441;-58
2022/04/10 03:38:51;;;;;;;11.75;6.18;;;0.40;99.90;;;;;;5071690;28;20082;-57
2022/04/10 03:41:17;;;;;;;12.32;6.63;;;0.50;99.90;;;;;;5052163;28;20082;-59
2022/04/10 03:43:42;;;;;;;14.23;7.05;;;0.50;99.90;;;;;;5052735;28;20502;-50
2022/04/10 03:46:08;;;;;;;11.15;6.57;;;0.60;99.90;;;;;;5053889;28;20032;-56
2022/04/10 03:48:34;;;;;;;12.48;6.00;;;0.70;99.90;;;;;;5065539;28;20463;-58
2022/04/10 03:50:59;;;;;;;11.68;6.07;;;0.80;99.90;;;;;;5071257;28;20032;-57
2022/04/10 03:53:25;;;;;;;15.65;6.57;;;0.80;99.90;;;;;;5067335;28;20025;-57
2022/04/10 03:55:51;;;;;;;10.73;5.90;;;0.90;99.90;;;;;;5058454;28;20025;-58
2022/04/10 03:58:16;;;;;;;11.15;6.18;;;1.00;99.90;;;;;;5065176;28;20048;-55
2022/04/10 04:00:44;;;;;;;14.30;6.38;;;1.00;99.90;;;;;;5052227;28;20013;-57
2022/04/10 04:03:09;;;;;;;13.63;6.25;;;1.10;99.90;;;;;;5055909;28;20028;-56
2022/04/10 04:05:35;;;;;;;16.50;5.38;;;1.10;99.90;;;;;;5062580;28;20028;-57
2022/04/10 04:08:01;;;;;;;13.57;5.43;;;1.20;99.90;;;;;;5057479;28;20029;-58
2022/04/10 04:10:26;;;;;;;9.60;5.07;;;1.20;99.90;;;;;;5069681;28;20017;-59
2022/04/10 04:12:52;;;;;;;8.77;5.97;;;1.20;99.90;;;;;;5071077;28;20099;-58
2022/04/10 04:15:17;;;;;;;9.57;5.85;;;1.20;99.90;;;;;;5051416;28;20411;-59
2022/04/10 04:17:43;;;;;;;15.15;4.55;;;1.20;99.90;;;;;;5054782;28;20060;-49
2022/04/10 04:20:09;;;;;;;19.40;6.07;;;1.20;99.90;;;;;;5050767;28;20108;-55
2022/04/10 04:22:35;;;;;;;13.18;6.03;;;1.20;99.90;;;;;;5035189;28;20041;-56
2022/04/10 04:25:02;;;;;;;11.77;5.60;;;1.20;99.90;;;;;;5060484;28;20028;-57
2022/04/10 04:27:28;;;;;;;13.45;6.05;;;1.20;99.90;;;;;;5067578;28;20104;-58
2022/04/10 04:29:53;;;;;;;22.08;5.60;;;1.10;99.90;;;;;;5070938;28;20125;-57
2022/04/10 04:32:19;;;;;;;17.85;6.00;;;1.10;99.90;;;;;;5064522;28;20507;-54
2022/04/10 04:34:47;;;;;;;11.00;6.00;;;1.00;99.90;;;;;;5067558;28;20021;-58
2022/04/10 04:37:12;;;;;;;13.05;5.90;;;1.00;99.90;;;;;;5057693;28;20053;-57
2022/04/10 04:39:38;;;;;;;12.65;5.60;;;1.00;99.90;;;;;;5050935;28;20563;-59
2022/04/10 04:42:04;;;;;;;12.48;5.28;;;0.90;99.90;;;;;;5055075;28;20033;-54
2022/04/10 04:44:30;;;;;;;9.90;5.22;;;0.90;99.90;;;;;;5050768;28;20550;-57
2022/04/10 04:46:57;;;;;;;12.30;5.85;;;0.90;99.90;;;;;;5068967;28;20391;-56
2022/04/10 04:49:22;;;;;;;9.95;5.25;;;0.90;99.90;;;;;;5058711;28;20032;-58
2022/04/10 04:51:48;;;;;;;15.40;5.25;;;0.90;99.90;;;;;;5067356;28;20062;-57
2022/04/10 04:54:13;;;;;;;12.38;4.93;;;0.90;99.90;;;;;;5070849;28;20020;-53
2022/04/10 04:56:39;;;;;;;13.23;5.80;;;0.90;99.90;;;;;;5057220;28;20036;-54
2022/04/10 04:59:04;;;;;;;15.52;5.72;;;1.00;99.90;;;;;;5068840;28;20062;-54
2022/04/10 05:01:30;;;;;;;12.02;4.82;;;1.00;99.90;;;;;;5050687;28;20034;-58
2022/04/10 05:03:55;;;;;;;15.45;4.85;;;1.10;99.90;;;;;;5067045;28;20059;-57
2022/04/10 05:06:21;;;;;;;13.73;5.30;;;1.30;99.90;;;;;;5067110;28;20033;-57
2022/04/10 05:08:46;;;;;;;20.35;5.40;;;1.40;99.90;;;;;;5061985;28;20599;-54
2022/04/10 05:11:13;;;;;;;13.15;4.97;;;1.50;99.90;;;;;;5056862;28;20032;-56
2022/04/10 05:13:40;;;;;;;9.63;4.60;;;1.70;99.90;;;;;;5050700;28;20025;-56
2022/04/10 05:16:05;;;;;;;15.02;4.30;;;1.80;99.90;;;;;;5061086;28;20024;-55
2022/04/10 05:18:31;;;;;;;14.85;4.75;;;1.90;99.90;;;;;;5054505;28;20020;-58
2022/04/10 05:20:57;;;;;;;11.30;4.72;;;1.90;99.90;;;;;;5061132;28;20038;-54
2022/04/10 05:23:22;;;;;;;10.27;5.07;;;2.00;99.90;;;;;;5054835;28;20503;-58
2022/04/10 05:25:49;;;;;;;7.22;4.25;;;1.90;99.90;;;;;;5063604;28;20036;-57
2022/04/10 05:28:15;;;;;;;9.25;4.72;;;2.00;99.90;;;;;;5053606;28;20491;-58
2022/04/10 05:30:42;;;;;;;8.63;4.22;;;2.00;99.90;;;;;;5058321;28;20027;-57
2022/04/10 05:33:08;;;;;;;10.93;4.53;;;2.10;99.90;;;;;;5050337;28;20027;-59
2022/04/10 05:35:33;;;;;;;10.88;4.82;;;2.20;99.90;;;;;;5053373;28;20029;-58
2022/04/10 05:38:00;;;;;;;11.80;5.50;;;2.40;99.90;;;;;;5053012;28;20028;-58
2022/04/10 05:40:25;;;;;;;11.48;5.15;;;2.50;99.90;;;;;;5056922;28;20033;-58
2022/04/10 05:42:51;;;;;;;11.13;4.13;;;2.70;99.90;;;;;;5050774;28;20388;-60
2022/04/10 05:45:16;;;;;;;11.00;3.80;;;3.00;99.90;;;;;;5054909;28;20025;-58
2022/04/10 05:47:43;;;;;;;10.35;4.40;;;3.30;99.90;;;;;;5061330;28;20037;-52
2022/04/10 05:50:10;;;;;;;12.23;4.50;;;3.40;99.90;;;;;;5057807;28;20024;-58
2022/04/10 05:52:43;;;;;;;10.52;4.65;;;3.60;99.90;;;;;;5065864;28;20025;-60
2022/04/10 05:55:10;;;;;;;5.97;3.45;;;3.80;99.90;;;;;;5048383;28;20029;-59
2022/04/10 05:57:36;;;;;;;11.35;4.07;;;4.10;99.90;;;;;;5054745;28;20037;-60
2022/04/10 06:00:05;;;;;;;14.45;4.00;;;4.30;99.90;;;;;;5056395;28;20095;-59
2022/04/10 06:02:31;;;;;;;7.60;3.47;;;4.50;99.90;;;;;;5054355;28;20059;-60
2022/04/10 06:04:56;;;;;;;5.15;2.80;;;4.90;99.90;;;;;;5061963;28;20071;-58
2022/04/10 06:07:22;;;;;;;10.27;3.75;;;5.10;99.90;;;;;;5049822;28;20060;-60
2022/04/10 06:09:48;;;;;;;8.13;3.42;;;5.50;99.90;;;;;;5062230;28;20115;-58
2022/04/10 06:12:14;;;;;;;6.20;3.33;;;5.70;99.90;;;;;;5069409;28;20033;-58
2022/04/10 06:14:40;;;;;;;17.58;4.20;;;6.20;99.90;;;;;;5058475;28;20028;-58
2022/04/10 06:17:07;;;;;;;8.07;3.35;;;6.70;99.90;;;;;;5056499;28;20064;-58
2022/04/10 06:19:33;;;;;;;9.57;4.32;;;7.40;99.90;;;;;;5055859;28;20107;-61
2022/04/10 06:21:58;;;;;;;7.90;3.47;;;7.30;99.90;;;;;;5033017;28;20442;-59
2022/04/10 06:24:24;;;;;;;6.95;3.60;;;7.50;99.90;;;;;;5049917;28;20044;-60
2022/04/10 06:26:49;;;;;;;7.68;3.00;;;7.70;99.50;;;;;;5054807;28;20033;-58
2022/04/10 06:29:16;;;;;;;5.13;3.30;;;8.00;98.90;;;;;;5053682;28;20029;-61
2022/04/10 06:31:41;;;;;;;8.95;4.25;;;7.90;99.30;;;;;;5053140;28;20025;-56
2022/04/10 06:34:07;;;;;;;7.20;3.38;;;8.00;99.90;;;;;;5059214;28;20032;-58
2022/04/10 06:36:33;;;;;;;8.85;3.85;;;9.00;98.40;;;;;;5064859;28;20039;-60
2022/04/10 06:38:58;;;;;;;6.95;4.05;;;9.40;96.90;;;;;;5053610;28;20088;-60
2022/04/10 06:41:24;;;;;;;7.35;3.42;;;10.00;96.20;;;;;;5065786;28;20090;-61
2022/04/10 06:43:49;;;;;;;11.02;4.30;;;10.40;94.70;;;;;;5073634;28;20035;-61
2022/04/10 06:46:15;;;;;;;7.55;3.60;;;11.70;93.50;;;;;;5060655;28;20036;-60
2022/04/10 06:48:40;;;;;;;7.70;2.88;;;12.30;91.20;;;;;;5065195;28;20108;-61
2022/04/10 06:51:06;;;;;;;6.13;3.00;;;12.70;91.30;;;;;;5061035;28;20044;-61
2022/04/10 06:53:31;;;;;;;5.20;3.05;;;14.30;85.80;;;;;;5064854;28;20017;-61
2022/04/10 06:55:57;;;;;;;8.20;3.35;;;14.40;83.80;;;;;;5052250;28;20065;-62
2022/04/10 06:58:23;;;;;;;8.82;3.28;;;14.70;82.70;;;;;;5052766;28;20395;-61
2022/04/10 07:00:49;;;;;;;6.60;3.33;;;14.70;80.50;;;;;;5057036;28;20025;-59
2022/04/10 07:03:15;;;;;;;6.68;2.75;;;14.90;80.00;;;;;;5061859;28;20036;-61
2022/04/10 07:05:41;;;;;;;10.13;3.53;;;15.10;81.00;;;;;;5059713;28;20021;-61
2022/04/10 07:08:07;;;;;;;5.72;3.13;;;15.50;77.00;;;;;;5059208;28;20040;-61
2022/04/10 07:10:33;;;;;;;8.63;4.00;;;16.10;76.90;;;;;;5060524;28;20018;-60
2022/04/10 07:12:59;;;;;;;7.85;3.58;;;15.40;75.60;;;;;;5072323;28;20029;-57
2022/04/10 07:15:24;;;;;;;7.55;3.42;;;15.20;75.20;;;;;;5070786;28;20099;-58
2022/04/10 07:17:50;;;;;;;6.22;3.45;;;14.40;78.50;;;;;;5066241;28;20033;-57
2022/04/10 07:20:15;;;;;;;10.07;3.63;;;14.70;77.50;;;;;;5053138;28;20029;-57
2022/04/10 07:25:25;;;;;;;9.23;3.78;;;14.00;75.50;;;;;;5055526;28;20079;-61
2022/04/10 07:27:51;;;;;;;9.80;3.70;;;13.80;79.30;;;;;;5060294;28;20029;-57
2022/04/10 07:30:16;;;;;;;7.60;3.42;;;14.30;77.90;;;;;;5063543;28;20735;-59
2022/04/10 07:32:42;;;;;;;7.65;3.63;;;14.40;75.90;;;;;;5056366;28;20484;-59
2022/04/10 07:35:08;;;;;;;10.05;3.92;;;14.10;76.60;;;;;;5053389;28;20025;-55
2022/04/10 07:37:33;;;;;;;6.35;3.15;;;13.50;77.80;;;;;;5051150;28;20036;-59
2022/04/10 07:39:59;;;;;;;10.57;5.32;;;13.70;78.50;;;;;;5057302;28;20086;-58
2022/04/10 07:42:26;;;;;;;15.77;8.35;;;13.40;77.50;;;;;;5060437;28;20041;-59
2022/04/10 07:44:59;;;;;;;10.23;5.20;;;13.00;78.70;;;;;;5054075;28;20028;-61
2022/04/10 07:47:27;;;;;;;9.77;4.93;;;13.50;80.20;;;;;;5052076;28;20399;-61
2022/04/10 07:49:56;;;;;;;12.10;4.80;;;14.30;78.40;;;;;;5067492;28;20046;-61
2022/04/10 07:52:22;;;;;;;9.75;3.72;;;14.10;76.00;;;;;;5071231;28;20107;-60
2022/04/10 07:54:48;;;;;;;10.70;5.00;;;14.70;75.50;;;;;;5063528;28;20033;-57
2022/04/10 07:57:16;;;;;;;7.07;3.92;;;14.90;74.00;;;;;;5052458;28;20025;-58
2022/04/10 07:59:42;;;;;;;6.05;3.47;;;14.80;75.90;;;;;;5054938;28;20480;-58
2022/04/10 08:02:07;;;;;;;16.10;4.78;;;15.70;73.40;;;;;;5055950;28;20039;-59
2022/04/10 08:04:33;;;;;;;10.68;3.75;;;15.90;72.60;;;;;;5067482;28;20030;-60
2022/04/10 08:06:58;;;;;;;10.70;3.83;;;16.40;71.30;;;;;;5058717;28;20096;-58
2022/04/10 08:09:24;;;;;;;11.35;5.22;;;16.80;70.10;;;;;;5053471;28;20040;-58
2022/04/10 08:11:50;;;;;;;8.38;3.55;;;16.70;69.30;;;;;;5069243;28;20033;-58
2022/04/10 08:14:16;;;;;;;9.70;3.88;;;16.80;69.40;;;;;;5066778;28;20073;-59
2022/04/10 08:16:41;;;;;;;15.10;6.90;;;16.50;67.50;;;;;;5061122;28;20035;-59
2022/04/10 08:19:07;;;;;;;11.77;4.25;;;15.60;69.10;;;;;;5056687;28;20460;-59
2022/04/10 08:21:33;;;;;;;7.97;3.60;;;15.10;70.40;;;;;;5067371;28;20028;-58
2022/04/10 08:23:58;;;;;;;9.48;3.33;;;14.60;72.10;;;;;;5035578;28;20069;-57
2022/04/10 08:26:24;;;;;;;10.43;3.67;;;14.20;72.70;;;;;;5050617;28;20035;-61
2022/04/10 08:28:50;;;;;;;5.05;3.25;;;13.50;74.90;;;;;;5057347;28;20052;-61
2022/04/10 08:31:15;;;;;;;8.05;3.65;;;12.90;76.20;;;;;;5050758;28;20056;-60
2022/04/10 08:33:41;;;;;;;8.57;3.70;;;12.80;78.90;;;;;;5063999;28;20052;-61
2022/04/10 08:36:06;;;;;;;6.25;2.90;;;13.20;77.50;;;;;;5059024;28;20400;-58
2022/04/10 08:38:32;;;;;;;8.27;3.22;;;12.80;74.10;;;;;;5064800;28;20029;-58
2022/04/10 08:41:00;;;;;;;8.90;3.10;;;12.10;78.90;;;;;;5069859;28;20533;-58
2022/04/10 08:43:26;;;;;;;9.43;2.65;;;12.50;76.40;;;;;;5052854;28;20044;-60
2022/04/10 08:45:55;;;;;;;4.90;2.55;;;13.30;76.60;;;;;;5069668;28;20079;-61
2022/04/10 08:48:22;;;;;;;7.85;2.90;;;14.50;74.40;;;;;;5055294;28;20025;-61
2022/04/10 08:50:48;;;;;;;11.98;2.85;;;15.10;69.30;;;;;;5052113;28;20455;-59
2022/04/10 08:53:14;;;;;;;7.13;3.10;;;14.30;71.20;;;;;;5063000;28;20099;-60
2022/04/10 08:55:40;;;;;;;9.82;2.55;;;13.40;72.40;;;;;;5052902;28;20506;-60
2022/04/10 08:58:06;;;;;;;9.10;3.00;;;12.90;73.00;;;;;;5051060;28;20024;-57
2022/04/10 09:00:31;;;;;;;6.15;2.42;;;12.10;75.40;;;;;;5054427;28;20053;-59
2022/04/10 09:02:57;;;;;;;8.48;2.53;;;12.00;76.10;;;;;;5070883;28;20051;-60
2022/04/10 09:05:24;;;;;;;6.82;2.28;;;12.60;73.50;;;;;;5060635;28;20553;-58
2022/04/10 09:08:13;;;;;;;9.70;2.67;;;13.30;71.10;;;;;;5053395;28;20037;-58
2022/04/10 09:10:56;;;;;;;8.60;2.92;;;12.70;73.80;;;;;;5058408;28;20035;-59
2022/04/10 09:13:33;;;;;;;13.55;2.92;;;12.00;72.60;;;;;;5065575;28;20391;-56
2022/04/10 09:16:11;;;;;;;9.18;2.20;;;11.30;76.20;;;;;;5069079;28;20108;-56
2022/04/10 09:18:54;;;;;;;6.72;1.90;;;11.90;75.40;;;;;;5053948;28;20055;-57
2022/04/10 09:21:43;;;;;;;7.40;1.87;;;13.30;74.20;;;;;;5056191;28;20151;-58
2022/04/10 09:24:12;;;;;;;8.00;1.95;;;13.70;71.00;;;;;;5035276;28;20066;-55
2022/04/10 09:26:50;;;;;;;6.20;2.00;;;14.20;69.30;;;;;;5059763;28;20029;-60
2022/04/10 09:29:18;;;;;;;8.55;2.65;;;14.20;68.50;;;;;;5057522;28;20035;-61
2022/04/10 09:31:44;;;;;;;7.90;2.15;;;13.90;69.10;;;;;;5065955;28;20028;-56
2022/04/10 09:34:13;;;;;;;9.43;2.38;;;13.00;70.80;;;;;;5066644;28;20031;-59
2022/04/10 09:36:46;;;;;;;4.28;2.40;;;12.30;70.70;;;;;;5058750;28;20117;-58
2022/04/10 09:39:35;;;;;;;4.13;2.00;;;12.00;73.00;;;;;;5067315;28;20395;-57
2022/04/10 09:42:06;;;;;;;7.68;2.00;;;11.90;73.70;;;;;;5054488;28;20033;-59
2022/04/10 09:44:37;;;;;;;10.73;2.42;;;11.80;75.20;;;;;;5049925;28;20025;-59
2022/04/10 09:47:07;;;;;;;7.63;2.95;;;12.10;73.50;;;;;;5057378;28;20040;-55
2022/04/10 09:49:34;;;;;;;8.55;2.58;;;12.00;73.10;;;;;;5054542;28;20091;-57
2022/04/10 09:52:10;;;;;;;8.32;2.90;;;11.40;75.40;;;;;;5050493;28;20033;-56
2022/04/10 09:54:46;;;;;;;6.70;2.38;;;11.20;76.30;;;;;;5050698;28;20021;-58
2022/04/10 09:57:16;;;;;;;7.05;2.70;;;11.00;77.00;;;;;;5054791;28;20024;-58
2022/04/10 09:59:43;;;;;;;9.32;2.42;;;11.10;76.20;;;;;;5060410;28;20029;-55
2022/04/10 10:02:11;;;;;;;6.85;2.30;;;11.10;76.60;;;;;;5066934;28;20055;-57
2022/04/10 10:04:38;;;;;;;9.32;2.72;;;10.80;76.50;;;;;;5065660;28;20035;-57
2022/04/10 10:07:09;;;;;;;8.55;2.58;;;10.80;75.80;;;;;;5067611;28;20025;-59
2022/04/10 10:09:35;;;;;;;8.13;2.45;;;10.90;76.90;;;;;;5061867;28;20365;-61
2022/04/10 10:12:03;;;;;;;10.15;2.53;;;10.60;75.30;;;;;;5053759;28;20056;-56
2022/04/10 10:14:30;;;;;;;10.32;3.65;;;10.40;78.10;;;;;;5054842;28;20024;-59
2022/04/10 10:16:59;;;;;;;7.53;3.20;;;10.00;79.70;;;;;;5053467;28;20480;-55
2022/04/10 10:19:25;;;;;;;10.30;2.70;;;10.00;80.60;;;;;;5063994;28;20068;-58
2022/04/10 10:21:51;;;;;;;5.38;2.28;;;9.80;80.10;;;;;;5054559;28;20017;-58
2022/04/10 10:24:19;;;;;;;8.98;2.67;;;9.70;80.60;;;;;;5050161;28;20047;-57
2022/04/10 10:27:00;;;;;;;11.02;3.17;;;9.90;82.40;;;;;;5052921;28;20044;-59
2022/04/10 10:29:55;;;;;;;4.38;2.20;;;9.90;81.70;;;;;;5060909;28;20040;-59
2022/04/10 10:32:41;;;;;;;11.38;5.78;;;9.90;82.60;;;;;;5061846;28;20051;-58
2022/04/10 10:35:26;;;;;;;6.15;2.83;;;9.90;82.90;;;;;;5060303;28;20029;-59
2022/04/10 10:37:53;;;;;;;5.55;2.00;;;10.00;82.00;;;;;;5058557;28;20024;-59
2022/04/10 10:40:20;;;;;;;7.43;2.58;;;10.40;80.00;;;;;;5060598;28;20033;-59
2022/04/10 10:42:49;;;;;;;4.85;2.40;;;10.20;80.10;;;;;;5055520;28;20037;-60
2022/04/10 10:45:53;;;;;;;8.07;2.22;;;10.20;79.40;;;;;;5061771;28;20032;-58
2022/04/10 10:48:38;;;;;;;4.65;1.50;;;10.00;77.50;;;;;;5036255;28;20040;-59
2022/04/10 10:51:10;;;;;;;10.30;3.88;;;10.20;77.70;;;;;;5040006;28;20033;-54
2022/04/10 10:53:53;;;;;;;6.75;2.53;;;10.30;77.10;;;;;;5050068;28;20036;-58
2022/04/10 10:56:33;;;;;;;4.57;2.15;;;10.30;77.40;;;;;;5057745;28;20079;-58
2022/04/10 10:59:22;;;;;;;9.27;2.78;;;10.30;76.30;;;;;;5056589;28;20082;-58
2022/04/10 11:02:12;;;;;;;7.25;2.17;;;10.00;78.80;;;;;;5059490;28;20403;-56
2022/04/10 11:04:42;;;;;;;12.35;2.30;;;10.00;78.60;;;;;;5064183;28;20055;-57
2022/04/10 11:07:20;;;;;;;8.88;2.28;;;10.30;79.50;;;;;;5056990;28;20028;-57
2022/04/10 11:09:56;;;;;;;6.40;2.22;;;10.40;80.10;;;;;;5053703;28;20025;-51
2022/04/10 11:12:28;;;;;;;4.97;2.58;;;10.50;79.80;;;;;;5058103;28;20079;-59
2022/04/10 11:14:56;;;;;;;5.40;2.20;;;10.90;79.60;;;;;;5055771;28;20380;-57
2022/04/10 11:17:30;;;;;;;4.70;1.80;;;11.40;76.60;;;;;;5061434;28;20037;-57
2022/04/10 11:20:02;;;;;;;4.13;2.00;;;11.70;75.90;;;;;;5057902;28;20032;-57
2022/04/10 11:22:35;;;;;;;6.68;2.10;;;12.10;74.90;;;;;;5059895;28;20040;-59
2022/04/10 11:25:09;;;;;;;5.68;2.88;;;12.40;73.40;;;;;;5040606;28;20048;-58
2022/04/10 11:27:47;;;;;;;8.40;2.10;;;11.90;73.10;;;;;;5057147;28;20532;-56
2022/04/10 11:30:20;;;;;;;9.27;2.10;;;11.70;73.70;;;;;;5057337;28;20032;-55
2022/04/10 11:32:48;;;;;;;6.40;1.85;;;11.70;75.40;;;;;;5059961;28;20051;-55
2022/04/10 11:35:35;;;;;;;7.95;4.05;;;11.30;74.00;;;;;;5057753;28;20036;-58
2022/04/10 11:38:03;;;;;;;22.20;14.90;;;11.30;77.20;;;;;;5060582;28;20079;-58
2022/04/10 11:40:31;;;;;;;18.50;8.98;;;11.50;77.40;;;;;;5058519;28;20068;-58
2022/04/10 11:42:58;;;;;;;8.77;4.32;;;11.80;77.60;;;;;;5061709;28;20044;-59
2022/04/10 11:45:31;;;;;;;12.82;7.55;;;11.60;75.70;;;;;;5058294;28;20024;-58
2022/04/10 11:47:57;;;;;;;10.77;3.58;;;11.30;76.40;;;;;;5058703;28;20024;-58
2022/04/10 11:50:25;;;;;;;8.52;4.93;;;11.40;76.30;;;;;;5060876;28;20021;-59
2022/04/10 11:52:56;;;;;;;14.10;5.65;;;11.70;76.30;;;;;;5070838;28;20051;-57
2022/04/10 11:55:38;;;;;;;5.47;2.45;;;12.00;76.40;;;;;;5064705;28;20674;-57
2022/04/10 11:58:21;;;;;;;8.23;4.00;;;11.90;73.10;;;;;;5063565;28;20021;-59
2022/04/10 12:00:54;;;;;;;15.63;9.38;;;11.90;75.50;;;;;;5053559;28;20020;-58
2022/04/10 12:03:23;;;;;;;5.80;2.20;;;12.00;75.30;;;;;;5064984;28;20454;-54
2022/04/10 12:05:49;;;;;;;8.13;1.73;;;12.30;73.40;;;;;;5056398;28;20054;-57
2022/04/10 12:08:15;;;;;;;8.88;2.00;;;12.50;72.30;;;;;;5066548;28;20035;-56
2022/04/10 12:10:50;;;;;;;4.65;2.15;;;12.50;73.10;;;;;;5056318;28;20057;-56
2022/04/10 12:13:16;;;;;;;6.22;1.70;;;12.60;72.80;;;;;;5055020;28;20423;-56
2022/04/10 12:15:41;;;;;;;7.00;1.98;;;12.80;71.90;;;;;;5052871;28;20035;-56
2022/04/10 12:18:09;;;;;;;7.60;2.05;;;12.40;70.70;;;;;;5056617;28;20029;-60
2022/04/10 12:20:37;;;;;;;5.88;1.60;;;11.70;70.90;;;;;;5054185;28;20083;-58
2022/04/10 12:23:24;;;;;;;11.68;6.68;;;11.70;71.70;;;;;;5041155;28;20032;-57
2022/04/10 12:25:51;;;;;;;4.30;1.80;;;11.70;73.80;;;;;;5061985;28;20025;-59
2022/04/10 12:28:18;;;;;;;3.60;2.03;;;11.80;71.70;;;;;;5059166;28;20072;-59
2022/04/10 12:30:44;;;;;;;6.75;1.80;;;12.00;73.00;;;;;;5057390;28;20388;-56
2022/04/10 12:33:11;;;;;;;7.28;3.08;;;12.20;70.90;;;;;;5054134;28;20444;-57
2022/04/10 12:35:38;;;;;;;5.60;2.13;;;12.30;72.50;;;;;;5062793;28;20045;-57
2022/04/10 12:38:05;;;;;;;6.68;2.10;;;12.10;72.40;;;;;;5062888;28;20023;-59
2022/04/10 12:40:30;;;;;;;4.18;2.35;;;12.00;72.40;;;;;;5060341;28;20102;-54
2022/04/10 12:43:00;;;;;;;7.07;2.15;;;12.00;74.30;;;;;;5064663;28;20112;-58
2022/04/10 12:45:31;;;;;;;6.32;4.20;;;12.20;72.60;;;;;;5054552;28;20052;-59
2022/04/10 12:47:57;;;;;;;6.05;2.10;;;12.30;73.80;;;;;;5066271;28;20060;-56
2022/04/10 12:50:25;;;;;;;5.65;2.03;;;12.30;71.90;;;;;;5062928;28;20491;-58
2022/04/10 12:52:57;;;;;;;3.30;1.70;;;12.20;71.50;;;;;;5062702;28;20025;-58
2022/04/10 12:55:29;;;;;;;4.70;1.52;;;12.00;72.70;;;;;;5059761;28;20016;-57